ATL weather

Hartsfield Jackson Atlanta International Airport
Atlanta, Georgia, United States

Public forecast

Using degrees Fahrenheit for public forecast. Weather courtesy of forecast.io.

METAR (pilot weather report)

Retrieved 2017/02/24 13:52 UTC (55 minutes ago):

KATL 241352Z 15004KT 10SM FEW250 16/14 A2991

TAF (pilot weather forecast)

Retrieved 2017/02/24 12:45 UTC (2 hours ago):

TAF KATL 241140Z 2412/2518 12005KT P6SM FEW250 TEMPO 2412/2414 6SM HZ FM241500 16008KT P6SM FEW025 FM241800 17009KT P6SM SCT040 FM250500 20007KT P6SM BKN035 FM250900 24008KT P6SM BKN015 PROB30 2509/2513 5SM -SHRA BR BKN009 FM251300 29012G20KT P6SM SCT030 FM251500 30013G22KT P6SM SKC